• Join FlightAware (Why Join?)
  • Login
  • US Flag 
07:16AM EST


 

Airport Tracker/Info


-or-


 

Live Flight TrackerFlight Track Log ✈ UCA596 ✈ 06-Sep-2013 ✈ KIAD - KBGM

Flight Track Log - Related Links

Times and Time Zones

All times are in EDT time to prevent confusion due to time zone crossing. See the UCA596 flight status page for this flight to view local times or setup timezone preferences in your user account.

Time Position Orientation Groundspeed Altitude Reporting Facility
EDT Latitude Longitude Course Direction KTS MPH feet Rate Location/Type
01:01PM 39.0000 -77.4500 345° North 163 188 2,900  Level Potomac TRACON
01:02PM 39.0500 -77.4667 345° North 169 194 4,400 1,560 Climbing Potomac TRACON
01:04PM 39.1364 -77.4675 360° North 176 203 7,400 1,500 Climbing Washington Center
01:05PM 39.1822 -77.4661 North 176 203 8,800 1,320 Climbing Washington Center
01:06PM 39.2303 -77.4644 North 176 203 10,100 1,260 Climbing Washington Center
01:07PM 39.2803 -77.4606 North 176 203 11,400 1,260 Climbing Washington Center
01:08PM 39.3303 -77.4617 359° North 176 203 12,600 780 Climbing Washington Center
01:09PM 39.3867 -77.4606 North 183 211 13,000 300 Climbing Washington Center
01:10PM 39.4511 -77.4594 North 204 235 13,300 900 Climbing Washington Center
01:11PM 39.5097 -77.4583 North 211 243 14,800 1,260 Climbing Washington Center
01:12PM 39.5658 -77.4569 North 212 244 15,900 960 Climbing Washington Center
01:14PM 39.6678 -77.4544 North 204 235 17,600 840 Climbing New York Center
01:15PM 39.7261 -77.4519 North 199 229 18,300 660 Climbing New York Center
01:16PM 39.7803 -77.4517 360° North 199 229 19,000 300 Climbing New York Center
01:17PM 39.8431 -77.4522 360° North 214 246 19,000  Level New York Center
01:18PM 39.9075 -77.4531 359° North 224 258 19,000  Level New York Center
01:19PM 39.9722 -77.4511 North 236 272 19,000  Level New York Center
01:20PM 40.0392 -77.4494 North 236 272 19,000  Level New York Center
01:21PM 40.1058 -77.4475 North 236 272 19,000  Level New York Center
01:22PM 40.1728 -77.4458 North 236 272 19,000  Level New York Center
01:23PM 40.2372 -77.4467 359° North 236 272 19,000  Level New York Center
01:24PM 40.3022 -77.4447 North 236 272 19,000  Level New York Center
01:25PM 40.3667 -77.4456 359° North 236 272 19,000  Level New York Center
01:26PM 40.4314 -77.4436 North 236 272 19,000  Level New York Center
01:27PM 40.4961 -77.4442 360° North 236 272 19,000 -300 Level New York Center
01:28PM 40.5628 -77.4425 North 236 272 18,500 -660 Descending New York Center
01:29PM 40.6339 -77.4386 North 241 277 17,700 -960 Descending New York Center
01:30PM 40.7028 -77.4369 North 253 291 16,600 -1,140 Descending New York Center
01:31PM 40.7786 -77.4253 North 259 298 15,500 -840 Descending New York Center
01:32PM 40.8506 -77.4019 14° North 264 304 15,000 -300 Descending New York Center
01:33PM 40.9183 -77.3839 11° North 258 297 15,000  Level New York Center
01:34PM 40.9861 -77.3658 11° North 252 290 15,000  Level New York Center
01:35PM 41.0517 -77.3472 12° North 240 276 15,000  Level New York Center
01:36PM 41.1172 -77.3289 12° North 240 276 15,000  Level New York Center
01:37PM 41.1811 -77.3047 16° North 240 276 15,000  Level New York Center
01:38PM 41.2447 -77.2861 12° North 240 276 15,000  Level New York Center
01:39PM 41.3125 -77.2678 11° North 240 276 15,000  Level New York Center
01:40PM 41.3781 -77.2464 14° North 240 276 15,000  Level New York Center
01:41PM 41.4436 -77.2278 12° North 240 276 15,000  Level New York Center
01:42PM 41.5136 -77.2067 13° North 240 276 15,000  Level New York Center
01:43PM 41.5689 -77.1456 40° Northeast 226 260 15,000  Level New York Center
01:44PM 41.6128 -77.0692 52° Northeast 232 267 15,000  Level New York Center
01:45PM 41.6564 -76.9928 53° Northeast 249 287 15,000 -240 Level New York Center
01:46PM 41.6997 -76.9189 52° Northeast 254 292 14,600 -840 Descending New York Center
01:47PM 41.7453 -76.8397 52° Northeast 260 299 13,400 -1,200 Descending New York Center
01:48PM 41.7931 -76.7608 51° Northeast 260 299 12,200 -1,200 Descending New York Center
01:49PM 41.8386 -76.6842 51° Northeast 260 299 11,000 -1,200 Descending New York Center
01:50PM 41.8844 -76.6017 53° Northeast 260 299 9,800 -1,320 Descending New York Center
01:51PM 41.9275 -76.5303 51° Northeast 260 299 8,400 -1,440 Descending New York Center
01:52PM 41.9703 -76.4586 51° Northeast 254 292 7,000 -1,200 Descending New York Center
01:53PM 41.9867 -76.3764 75° East 242 278 6,000 -540 Descending New York Center
01:54PM 42.0097 -76.2861 71° East 232 267 6,000 -180 Level New York Center
01:55PM 42.0344 -76.2017 68° East 232 267 5,700 -660 Descending New York Center
01:56PM 42.0611 -76.1172 67° East 250 288 4,700 -660 Descending New York Center
01:57PM 42.0936 -76.0444 59° Northeast 233 268 4,400 -540 Descending New York Center
01:58PM 42.1236 -75.9797 58° Northeast 214 246 3,700 -900 Descending New York Center
01:59PM 42.1561 -75.9458 38° Northeast 181 208 2,600 -900 Descending New York Center
02:00PM 42.1847 -75.9594 341° North 121 139 2,000 3,180 Descending New York Center
02:01PM 42.2186 -75.9481 14° North 121 139 9,000 6,960 Climbing New York Center